地図

経路データ

SID SEASON NUMBER BASIN SUBBASIN NAME ISO_TIME NATURE LAT LON WMO_WIND WMO_PRES WMO_AGENCY TRACK_TYPE DIST2LAND LANDFALL IFLAG USA_AGENCY USA_ATCF_ID USA_LAT USA_LON USA_RECORD USA_STATUS USA_WIND USA_PRES USA_SSHS USA_R34_NE USA_R34_SE USA_R34_SW USA_R34_NW USA_R50_NE USA_R50_SE USA_R50_SW USA_R50_NW USA_R64_NE USA_R64_SE USA_R64_SW USA_R64_NW USA_POCI USA_ROCI USA_RMW USA_EYE TOKYO_LAT TOKYO_LON TOKYO_GRADE TOKYO_WIND TOKYO_PRES TOKYO_R50_DIR TOKYO_R50_LONG TOKYO_R50_SHORT TOKYO_R30_DIR TOKYO_R30_LONG TOKYO_R30_SHORT TOKYO_LAND CMA_LAT CMA_LON CMA_CAT CMA_WIND CMA_PRES HKO_LAT HKO_LON HKO_CAT HKO_WIND HKO_PRES NEWDELHI_LAT NEWDELHI_LON NEWDELHI_GRADE NEWDELHI_WIND NEWDELHI_PRES NEWDELHI_CI NEWDELHI_DP NEWDELHI_POCI REUNION_LAT REUNION_LON REUNION_TYPE REUNION_WIND REUNION_PRES REUNION_TNUM REUNION_CI REUNION_RMW REUNION_R34_NE REUNION_R34_SE REUNION_R34_SW REUNION_R34_NW REUNION_R50_NE REUNION_R50_SE REUNION_R50_SW REUNION_R50_NW REUNION_R64_NE REUNION_R64_SE REUNION_R64_SW REUNION_R64_NW BOM_LAT BOM_LON BOM_TYPE BOM_WIND BOM_PRES BOM_TNUM BOM_CI BOM_RMW BOM_R34_NE BOM_R34_SE BOM_R34_SW BOM_R34_NW BOM_R50_NE BOM_R50_SE BOM_R50_SW BOM_R50_NW BOM_R64_NE BOM_R64_SE BOM_R64_SW BOM_R64_NW BOM_ROCI BOM_POCI BOM_EYE BOM_POS_METHOD BOM_PRES_METHOD NADI_LAT NADI_LON NADI_CAT NADI_WIND NADI_PRES WELLINGTON_LAT WELLINGTON_LON WELLINGTON_WIND WELLINGTON_PRES DS824_LAT DS824_LON DS824_STAGE DS824_WIND DS824_PRES TD9636_LAT TD9636_LON TD9636_STAGE TD9636_WIND TD9636_PRES TD9635_LAT TD9635_LON TD9635_WIND TD9635_PRES TD9635_ROCI NEUMANN_LAT NEUMANN_LON NEUMANN_CLASS NEUMANN_WIND NEUMANN_PRES MLC_LAT MLC_LON MLC_CLASS MLC_WIND MLC_PRES USA_GUST BOM_GUST BOM_GUST_PER REUNION_GUST REUNION_GUST_PER USA_SEAHGT USA_SEARAD_NE USA_SEARAD_SE USA_SEARAD_SW USA_SEARAD_NW STORM_SPEED STORM_DIR
1972277N12087 1972 107 NI BB NOT_NAMED 1972-10-02 15:00:00 NR 11.8000 87.4000 main 759 729 __________O___ -1 11.8000 87.4000 1 7 303
1972277N12087 1972 107 NI BB NOT_NAMED 1972-10-02 18:00:00 TS 11.9937 87.0921 main 729 691 O________OP___ jtwc_io IO111972 12.0000 87.1000 -1 12.0000 87.1000 TC 25 11.9873 87.0843 1 7 302
1972277N12087 1972 107 NI BB NOT_NAMED 1972-10-02 21:00:00 TS 12.1927 86.7621 main 691 644 P________PP___ IO111972 12.2025 86.7751 -1 12.2025 86.7751 TC 25 12.1796 86.7447 1 8 300
1972277N12087 1972 107 NI BB NOT_NAMED 1972-10-03 00:00:00 TS 12.3929 86.3831 main 644 599 O________OP___ jtwc_io IO111972 12.4000 86.4000 -1 12.4000 86.4000 TC 25 12.3822 86.3578 1 9 296
1972277N12087 1972 107 NI BB NOT_NAMED 1972-10-03 03:00:00 TS 12.5950 85.9249 main 592 540 P________PO___ IO111972 12.5924 85.9374 -1 12.5924 85.9374 TC 25 12.6000 85.9000 1 11 293
1972277N12087 1972 107 NI BB NOT_NAMED 1972-10-03 06:00:00 TS 12.8115 85.3862 main 540 484 O________OP___ jtwc_io IO111972 12.8000 85.4000 -1 12.8000 85.4000 TC 25 12.8346 85.3585 1 12 293
1972277N12087 1972 107 NI BB NOT_NAMED 1972-10-03 09:00:00 TS 13.0578 84.7936 main 475 422 P________PP___ IO111972 13.0500 84.8075 -1 13.0500 84.8075 TC 25 13.0732 84.7656 1 13 293
1972277N12087 1972 107 NI BB NOT_NAMED 1972-10-03 12:00:00 TS 13.3001 84.1882 main 422 357 O________OP___ jtwc_io IO111972 13.3000 84.2000 -1 13.3000 84.2000 TC 25 13.3002 84.1648 1 12 292
1972277N12087 1972 107 NI BB NOT_NAMED 1972-10-03 15:00:00 TS 13.5149 83.6183 main 357 302 P________PO___ IO111972 13.5224 83.6275 -1 13.5224 83.6275 TC 25 13.5000 83.6000 1 11 290
1972277N12087 1972 107 NI BB NOT_NAMED 1972-10-03 18:00:00 TS 13.6859 83.0970 main 302 248 O________OP___ jtwc_io IO111972 13.7000 83.1000 -1 13.7000 83.1000 TC 25 13.6576 83.0910 1 10 287
1972277N12087 1972 107 NI BB NOT_NAMED 1972-10-03 21:00:00 TS 13.8057 82.6132 main 248 205 P________PP___ IO111972 13.8150 82.6049 -1 13.8150 82.6049 TC 25 13.7873 82.6297 1 9 284
1972277N12087 1972 107 NI BB NOT_NAMED 1972-10-04 00:00:00 TS 13.8994 82.2095 main 205 174 O________OP___ jtwc_io IO111972 13.9000 82.2000 -1 13.9000 82.2000 TC 25 13.8983 82.2286 1 7 286
1972277N12087 1972 107 NI BB NOT_NAMED 1972-10-04 03:00:00 TS 13.9999 81.9033 main 174 154 P________PO___ IO111972 13.9999 81.9050 -1 13.9999 81.9050 TC 25 14.0000 81.9000 1 5 292
1972277N12087 1972 107 NI BB NOT_NAMED 1972-10-04 06:00:00 TS 14.0995 81.6883 main 154 137 O________OP___ jtwc_io IO111972 14.1000 81.7000 -1 14.1000 81.7000 TC 25 14.0985 81.6650 1 4 298
1972277N12087 1972 107 NI BB NOT_NAMED 1972-10-04 09:00:00 TS 14.1972 81.5273 main 137 131 P________PP___ IO111972 14.1999 81.5425 -1 14.1999 81.5425 TC 25 14.1918 81.4971 1 4 304
1972277N12087 1972 107 NI BB NOT_NAMED 1972-10-04 12:00:00 TS 14.2964 81.3852 main 131 110 O________OP___ jtwc_io IO111972 14.3000 81.4000 -1 14.3000 81.4000 TC 25 14.2893 81.3556 1 4 303
1972277N12087 1972 107 NI BB NOT_NAMED 1972-10-04 15:00:00 TS 14.3950 81.2150 main 110 86 P________PO___ IO111972 14.3925 81.2224 -1 14.3925 81.2224 TC 25 14.4000 81.2000 1 4 298
1972277N12087 1972 107 NI BB NOT_NAMED 1972-10-04 18:00:00 TS 14.5038 80.9878 main 86 53 O________OP___ jtwc_io IO111972 14.5000 81.0000 -1 14.5000 81.0000 TC 25 14.5113 80.9633 1 6 296
1972277N12087 1972 107 NI BB NOT_NAMED 1972-10-04 21:00:00 TS 14.6368 80.7024 main 53 31 P________PP___ IO111972 14.6351 80.7000 -1 14.6351 80.7000 TC 25 14.6401 80.7073 1 6 298
1972277N12087 1972 107 NI BB NOT_NAMED 1972-10-05 00:00:00 TS 14.7996 80.4159 main 31 15 O________OP___ jtwc_io IO111972 14.8000 80.4000 -1 14.8000 80.4000 TC 25 14.7988 80.4476 1 6 305
1972277N12087 1972 107 NI BB NOT_NAMED 1972-10-05 03:00:00 TS 14.9850 80.1899 main 21 0 P________PO___ IO111972 14.9774 80.1849 -1 14.9774 80.1849 TC 25 15.0000 80.2000 1 6 316
1972277N12087 1972 107 NI BB NOT_NAMED 1972-10-05 06:00:00 TS 15.2207 79.9905 main 0 0 O________OP___ jtwc_io IO111972 15.2000 80.0000 -1 15.2000 80.0000 TC 25 15.2518 79.9762 1 7 324
1972277N12087 1972 107 NI BB NOT_NAMED 1972-10-05 09:00:00 TS 15.5093 79.7914 main 0 0 P________PP___ IO111972 15.4826 79.8052 -1 15.4826 79.8052 TC 25 15.5450 79.7730 1 7 328
1972277N12087 1972 107 NI BB NOT_NAMED 1972-10-05 12:00:00 TS 15.8328 79.5917 main 0 0 O________OP___ jtwc_io IO111972 15.8000 79.6000 -1 15.8000 79.6000 TC 25 15.8657 79.5833 1 8 331
1972277N12087 1972 107 NI BB NOT_NAMED 1972-10-05 15:00:00 NR 16.2000 79.4000 main 0 __________O___ IO111972 -1 TC 16.2000 79.4000 1 8 333

IBTrACS Databaseについて

本データベースは、米国NOAAが公開する1842年以降の世界の熱帯低気圧のベストトラックデータアーカイブInternational Best Track Archive for Climate Stewardship (IBTrACS)を、ウェブで閲覧しやすい形式に変換したものです。

最終更新日:2021-10-21